sensor_id;sensor_type;location;lat;lon;timestamp;temperature;humidity
6696;DHT22;3385;48.928;10.330;2022-11-15T00:01:09;9.10;99.90
6696;DHT22;3385;48.928;10.330;2022-11-15T00:03:35;8.90;99.90
6696;DHT22;3385;48.928;10.330;2022-11-15T00:09:52;8.50;99.90
6696;DHT22;3385;48.928;10.330;2022-11-15T00:12:27;8.40;99.90
6696;DHT22;3385;48.928;10.330;2022-11-15T00:15:00;8.40;99.90
6696;DHT22;3385;48.928;10.330;2022-11-15T00:17:36;8.30;99.90
6696;DHT22;3385;48.928;10.330;2022-11-15T00:30:44;8.20;99.90
6696;DHT22;3385;48.928;10.330;2022-11-15T00:33:35;7.70;99.90
6696;DHT22;3385;48.928;10.330;2022-11-15T00:36:15;6.40;99.90
6696;DHT22;3385;48.928;10.330;2022-11-15T00:38:51;7.50;99.90
6696;DHT22;3385;48.928;10.330;2022-11-15T00:41:23;7.50;99.90
6696;DHT22;3385;48.928;10.330;2022-11-15T00:43:57;7.60;99.90
6696;DHT22;3385;48.928;10.330;2022-11-15T00:46:23;7.40;99.90
6696;DHT22;3385;48.928;10.330;2022-11-15T00:48:48;7.40;99.90
6696;DHT22;3385;48.928;10.330;2022-11-15T00:51:14;7.40;99.90
6696;DHT22;3385;48.928;10.330;2022-11-15T00:53:40;7.40;99.90
6696;DHT22;3385;48.928;10.330;2022-11-15T00:56:05;7.30;99.90
6696;DHT22;3385;48.928;10.330;2022-11-15T00:58:31;7.20;99.90
6696;DHT22;3385;48.928;10.330;2022-11-15T01:01:08;7.20;99.90
6696;DHT22;3385;48.928;10.330;2022-11-15T01:03:35;7.10;99.90
6696;DHT22;3385;48.928;10.330;2022-11-15T01:06:01;7.00;99.90
6696;DHT22;3385;48.928;10.330;2022-11-15T01:08:27;6.90;99.90
6696;DHT22;3385;48.928;10.330;2022-11-15T01:10:53;6.90;99.90
6696;DHT22;3385;48.928;10.330;2022-11-15T01:13:19;6.80;99.90
6696;DHT22;3385;48.928;10.330;2022-11-15T01:15:44;6.70;99.90
6696;DHT22;3385;48.928;10.330;2022-11-15T01:18:10;6.70;99.90
6696;DHT22;3385;48.928;10.330;2022-11-15T01:20:40;6.70;99.90
6696;DHT22;3385;48.928;10.330;2022-11-15T01:23:07;6.60;99.90
6696;DHT22;3385;48.928;10.330;2022-11-15T01:25:33;6.60;99.90
6696;DHT22;3385;48.928;10.330;2022-11-15T01:27:58;6.50;99.90
6696;DHT22;3385;48.928;10.330;2022-11-15T01:30:24;6.60;99.90
6696;DHT22;3385;48.928;10.330;2022-11-15T01:32:50;6.50;99.90
6696;DHT22;3385;48.928;10.330;2022-11-15T01:35:16;4.90;99.90
6696;DHT22;3385;48.928;10.330;2022-11-15T01:37:41;6.50;99.90
6696;DHT22;3385;48.928;10.330;2022-11-15T01:40:07;6.50;99.90
6696;DHT22;3385;48.928;10.330;2022-11-15T01:42:33;6.50;99.90
6696;DHT22;3385;48.928;10.330;2022-11-15T01:44:59;6.40;99.90
6696;DHT22;3385;48.928;10.330;2022-11-15T01:47:29;6.40;99.90
6696;DHT22;3385;48.928;10.330;2022-11-15T01:50:00;6.30;99.90
6696;DHT22;3385;48.928;10.330;2022-11-15T01:52:29;6.30;99.90
6696;DHT22;3385;48.928;10.330;2022-11-15T01:55:00;6.30;99.90
6696;DHT22;3385;48.928;10.330;2022-11-15T01:57:28;6.20;99.90
6696;DHT22;3385;48.928;10.330;2022-11-15T01:59:54;6.10;99.90
6696;DHT22;3385;48.928;10.330;2022-11-15T02:02:20;6.10;99.90
6696;DHT22;3385;48.928;10.330;2022-11-15T02:04:47;6.00;99.90
6696;DHT22;3385;48.928;10.330;2022-11-15T02:07:15;5.90;99.90
6696;DHT22;3385;48.928;10.330;2022-11-15T02:09:43;5.90;99.90
6696;DHT22;3385;48.928;10.330;2022-11-15T02:12:10;5.90;99.90
6696;DHT22;3385;48.928;10.330;2022-11-15T02:14:38;5.80;99.90
6696;DHT22;3385;48.928;10.330;2022-11-15T02:26:15;5.80;99.90
6696;DHT22;3385;48.928;10.330;2022-11-15T02:31:40;5.80;99.90
6696;DHT22;3385;48.928;10.330;2022-11-15T02:42:17;5.50;99.90
6696;DHT22;3385;48.928;10.330;2022-11-15T02:45:06;5.40;99.90
6696;DHT22;3385;48.928;10.330;2022-11-15T02:47:41;5.40;99.90
6696;DHT22;3385;48.928;10.330;2022-11-15T02:50:10;5.20;99.90
6696;DHT22;3385;48.928;10.330;2022-11-15T02:52:37;5.10;99.90
6696;DHT22;3385;48.928;10.330;2022-11-15T02:55:03;5.00;99.90
6696;DHT22;3385;48.928;10.330;2022-11-15T02:57:41;4.90;99.90
6696;DHT22;3385;48.928;10.330;2022-11-15T03:00:12;4.80;99.90
6696;DHT22;3385;48.928;10.330;2022-11-15T03:11:08;4.60;99.90
6696;DHT22;3385;48.928;10.330;2022-11-15T03:14:02;4.50;99.90
6696;DHT22;3385;48.928;10.330;2022-11-15T03:16:41;4.40;99.90
6696;DHT22;3385;48.928;10.330;2022-11-15T03:19:17;4.30;99.90
6696;DHT22;3385;48.928;10.330;2022-11-15T03:21:47;4.40;99.90
6696;DHT22;3385;48.928;10.330;2022-11-15T03:24:16;4.10;99.90
6696;DHT22;3385;48.928;10.330;2022-11-15T03:26:44;4.20;99.90
6696;DHT22;3385;48.928;10.330;2022-11-15T03:29:20;4.30;99.90
6696;DHT22;3385;48.928;10.330;2022-11-15T03:31:53;4.30;99.90
6696;DHT22;3385;48.928;10.330;2022-11-15T03:37:02;4.30;99.90
6696;DHT22;3385;48.928;10.330;2022-11-15T03:39:29;4.30;99.90
6696;DHT22;3385;48.928;10.330;2022-11-15T03:44:46;4.20;99.90
6696;DHT22;3385;48.928;10.330;2022-11-15T03:49:46;4.20;99.90
6696;DHT22;3385;48.928;10.330;2022-11-15T03:52:18;4.20;99.90
6696;DHT22;3385;48.928;10.330;2022-11-15T03:54:53;4.10;99.90
6696;DHT22;3385;48.928;10.330;2022-11-15T03:57:19;4.10;99.90
6696;DHT22;3385;48.928;10.330;2022-11-15T03:59:45;4.10;99.90
6696;DHT22;3385;48.928;10.330;2022-11-15T04:02:12;4.10;99.90
6696;DHT22;3385;48.928;10.330;2022-11-15T04:04:38;4.00;99.90
6696;DHT22;3385;48.928;10.330;2022-11-15T04:07:04;4.00;99.90
6696;DHT22;3385;48.928;10.330;2022-11-15T04:09:29;4.00;99.90
6696;DHT22;3385;48.928;10.330;2022-11-15T04:11:55;4.00;99.90
6696;DHT22;3385;48.928;10.330;2022-11-15T04:14:21;4.00;99.90
6696;DHT22;3385;48.928;10.330;2022-11-15T04:16:46;3.90;99.90
6696;DHT22;3385;48.928;10.330;2022-11-15T04:19:12;3.80;99.90
6696;DHT22;3385;48.928;10.330;2022-11-15T04:21:56;3.80;99.90
6696;DHT22;3385;48.928;10.330;2022-11-15T04:24:40;3.70;99.90
6696;DHT22;3385;48.928;10.330;2022-11-15T04:27:06;3.70;99.90
6696;DHT22;3385;48.928;10.330;2022-11-15T04:29:32;3.80;99.90
6696;DHT22;3385;48.928;10.330;2022-11-15T04:32:04;3.70;99.90
6696;DHT22;3385;48.928;10.330;2022-11-15T04:34:30;3.70;99.90
6696;DHT22;3385;48.928;10.330;2022-11-15T04:36:56;3.80;99.90
6696;DHT22;3385;48.928;10.330;2022-11-15T04:39:39;3.80;99.90
6696;DHT22;3385;48.928;10.330;2022-11-15T04:42:05;3.90;99.90
6696;DHT22;3385;48.928;10.330;2022-11-15T04:44:30;3.90;99.90
6696;DHT22;3385;48.928;10.330;2022-11-15T04:46:56;4.00;99.90
6696;DHT22;3385;48.928;10.330;2022-11-15T04:49:22;4.00;99.90
6696;DHT22;3385;48.928;10.330;2022-11-15T04:51:48;4.00;99.90
6696;DHT22;3385;48.928;10.330;2022-11-15T04:54:14;4.10;99.90
6696;DHT22;3385;48.928;10.330;2022-11-15T04:56:39;4.10;99.90
6696;DHT22;3385;48.928;10.330;2022-11-15T04:59:05;4.20;99.90
6696;DHT22;3385;48.928;10.330;2022-11-15T05:01:31;4.20;99.90
6696;DHT22;3385;48.928;10.330;2022-11-15T05:03:57;4.20;99.90
6696;DHT22;3385;48.928;10.330;2022-11-15T05:06:41;4.20;99.90
6696;DHT22;3385;48.928;10.330;2022-11-15T05:09:06;4.10;99.90
6696;DHT22;3385;48.928;10.330;2022-11-15T05:11:32;4.10;99.90
6696;DHT22;3385;48.928;10.330;2022-11-15T05:13:58;4.10;99.90
6696;DHT22;3385;48.928;10.330;2022-11-15T05:16:23;4.10;99.90
6696;DHT22;3385;48.928;10.330;2022-11-15T05:18:55;4.20;99.90
6696;DHT22;3385;48.928;10.330;2022-11-15T05:21:21;4.20;99.90
6696;DHT22;3385;48.928;10.330;2022-11-15T05:23:47;4.10;99.90
6696;DHT22;3385;48.928;10.330;2022-11-15T05:26:15;4.10;99.90
6696;DHT22;3385;48.928;10.330;2022-11-15T05:28:41;4.20;99.90
6696;DHT22;3385;48.928;10.330;2022-11-15T05:31:12;4.30;99.90
6696;DHT22;3385;48.928;10.330;2022-11-15T05:33:43;4.40;99.90
6696;DHT22;3385;48.928;10.330;2022-11-15T05:38:54;4.30;99.90
6696;DHT22;3385;48.928;10.330;2022-11-15T05:41:25;4.40;99.90
6696;DHT22;3385;48.928;10.330;2022-11-15T05:43:53;4.30;99.90
6696;DHT22;3385;48.928;10.330;2022-11-15T05:46:19;4.40;99.90
6696;DHT22;3385;48.928;10.330;2022-11-15T05:48:48;4.40;99.90
6696;DHT22;3385;48.928;10.330;2022-11-15T05:51:15;4.50;99.90
6696;DHT22;3385;48.928;10.330;2022-11-15T05:53:43;4.50;99.90
6696;DHT22;3385;48.928;10.330;2022-11-15T05:56:09;4.50;99.90
6696;DHT22;3385;48.928;10.330;2022-11-15T05:58:36;4.60;99.90
6696;DHT22;3385;48.928;10.330;2022-11-15T06:01:02;4.60;99.90
6696;DHT22;3385;48.928;10.330;2022-11-15T06:03:28;4.70;99.90
6696;DHT22;3385;48.928;10.330;2022-11-15T06:05:54;4.70;99.90
6696;DHT22;3385;48.928;10.330;2022-11-15T06:08:20;4.70;99.90
6696;DHT22;3385;48.928;10.330;2022-11-15T06:10:46;4.70;99.90
6696;DHT22;3385;48.928;10.330;2022-11-15T06:13:11;4.70;99.90
6696;DHT22;3385;48.928;10.330;2022-11-15T06:15:37;4.70;99.90
6696;DHT22;3385;48.928;10.330;2022-11-15T06:18:03;4.80;99.90
6696;DHT22;3385;48.928;10.330;2022-11-15T06:20:29;4.80;99.90
6696;DHT22;3385;48.928;10.330;2022-11-15T06:23:03;4.80;99.90
6696;DHT22;3385;48.928;10.330;2022-11-15T06:25:30;4.80;99.90
6696;DHT22;3385;48.928;10.330;2022-11-15T06:27:58;4.90;99.90
6696;DHT22;3385;48.928;10.330;2022-11-15T06:30:25;5.00;99.90
6696;DHT22;3385;48.928;10.330;2022-11-15T06:32:51;5.00;99.90
6696;DHT22;3385;48.928;10.330;2022-11-15T06:35:17;5.00;99.90
6696;DHT22;3385;48.928;10.330;2022-11-15T06:37:43;5.00;99.90
6696;DHT22;3385;48.928;10.330;2022-11-15T06:40:10;5.00;99.90
6696;DHT22;3385;48.928;10.330;2022-11-15T06:42:35;5.10;99.90
6696;DHT22;3385;48.928;10.330;2022-11-15T06:45:02;5.10;99.90
6696;DHT22;3385;48.928;10.330;2022-11-15T06:47:27;5.10;99.90
6696;DHT22;3385;48.928;10.330;2022-11-15T06:49:53;5.10;99.90
6696;DHT22;3385;48.928;10.330;2022-11-15T06:52:19;5.20;99.90
6696;DHT22;3385;48.928;10.330;2022-11-15T06:54:45;5.20;99.90
6696;DHT22;3385;48.928;10.330;2022-11-15T06:57:11;5.20;99.90
6696;DHT22;3385;48.928;10.330;2022-11-15T06:59:37;5.20;99.90
6696;DHT22;3385;48.928;10.330;2022-11-15T07:02:02;6.00;99.90
6696;DHT22;3385;48.928;10.330;2022-11-15T07:04:28;5.20;99.90
6696;DHT22;3385;48.928;10.330;2022-11-15T07:06:54;5.20;99.90
6696;DHT22;3385;48.928;10.330;2022-11-15T07:09:20;5.30;99.90
6696;DHT22;3385;48.928;10.330;2022-11-15T07:11:46;5.30;99.90
6696;DHT22;3385;48.928;10.330;2022-11-15T07:14:11;5.30;99.90
6696;DHT22;3385;48.928;10.330;2022-11-15T07:16:37;5.30;99.90
6696;DHT22;3385;48.928;10.330;2022-11-15T07:19:03;5.30;99.90
6696;DHT22;3385;48.928;10.330;2022-11-15T07:21:29;5.30;99.90
6696;DHT22;3385;48.928;10.330;2022-11-15T07:23:55;5.20;99.90
6696;DHT22;3385;48.928;10.330;2022-11-15T07:26:21;5.20;99.90
6696;DHT22;3385;48.928;10.330;2022-11-15T07:28:47;5.20;99.90
6696;DHT22;3385;48.928;10.330;2022-11-15T07:31:12;5.20;99.90
6696;DHT22;3385;48.928;10.330;2022-11-15T07:33:38;5.30;99.90
6696;DHT22;3385;48.928;10.330;2022-11-15T07:36:06;5.30;99.90
6696;DHT22;3385;48.928;10.330;2022-11-15T07:38:32;5.40;99.90
6696;DHT22;3385;48.928;10.330;2022-11-15T07:41:00;5.40;99.90
6696;DHT22;3385;48.928;10.330;2022-11-15T07:43:26;5.50;99.90
6696;DHT22;3385;48.928;10.330;2022-11-15T07:45:58;5.60;99.90
6696;DHT22;3385;48.928;10.330;2022-11-15T07:48:23;5.70;99.90
6696;DHT22;3385;48.928;10.330;2022-11-15T07:50:49;5.80;99.90
6696;DHT22;3385;48.928;10.330;2022-11-15T07:53:15;5.80;99.90
6696;DHT22;3385;48.928;10.330;2022-11-15T07:55:41;5.80;99.90
6696;DHT22;3385;48.928;10.330;2022-11-15T07:58:09;5.80;99.90
6696;DHT22;3385;48.928;10.330;2022-11-15T08:00:36;5.80;99.90
6696;DHT22;3385;48.928;10.330;2022-11-15T08:05:32;5.80;99.90
6696;DHT22;3385;48.928;10.330;2022-11-15T08:07:58;5.80;99.90
6696;DHT22;3385;48.928;10.330;2022-11-15T08:10:24;5.90;99.90
6696;DHT22;3385;48.928;10.330;2022-11-15T08:13:04;6.00;99.90
6696;DHT22;3385;48.928;10.330;2022-11-15T08:15:31;6.10;99.90
6696;DHT22;3385;48.928;10.330;2022-11-15T08:17:59;6.10;99.90
6696;DHT22;3385;48.928;10.330;2022-11-15T08:20:26;6.20;99.90
6696;DHT22;3385;48.928;10.330;2022-11-15T08:22:55;6.20;99.90
6696;DHT22;3385;48.928;10.330;2022-11-15T08:25:21;6.30;99.90
6696;DHT22;3385;48.928;10.330;2022-11-15T08:27:47;6.40;99.90
6696;DHT22;3385;48.928;10.330;2022-11-15T08:30:13;6.40;99.90
6696;DHT22;3385;48.928;10.330;2022-11-15T08:32:41;6.50;99.90
6696;DHT22;3385;48.928;10.330;2022-11-15T08:35:07;6.50;99.90
6696;DHT22;3385;48.928;10.330;2022-11-15T08:37:33;6.60;99.90
6696;DHT22;3385;48.928;10.330;2022-11-15T08:39:58;6.60;99.90
6696;DHT22;3385;48.928;10.330;2022-11-15T08:42:24;6.70;99.90
6696;DHT22;3385;48.928;10.330;2022-11-15T08:44:50;6.70;99.90
6696;DHT22;3385;48.928;10.330;2022-11-15T08:47:16;6.70;99.90
6696;DHT22;3385;48.928;10.330;2022-11-15T08:49:43;6.80;99.90
6696;DHT22;3385;48.928;10.330;2022-11-15T08:52:09;6.90;99.90
6696;DHT22;3385;48.928;10.330;2022-11-15T08:54:34;7.10;99.90
6696;DHT22;3385;48.928;10.330;2022-11-15T08:57:00;7.30;99.90
6696;DHT22;3385;48.928;10.330;2022-11-15T08:59:26;7.40;99.90
6696;DHT22;3385;48.928;10.330;2022-11-15T09:01:55;7.60;99.90
6696;DHT22;3385;48.928;10.330;2022-11-15T09:04:21;7.60;99.90
6696;DHT22;3385;48.928;10.330;2022-11-15T09:06:50;7.70;99.90
6696;DHT22;3385;48.928;10.330;2022-11-15T09:09:16;7.60;99.90
6696;DHT22;3385;48.928;10.330;2022-11-15T09:11:43;7.80;99.90
6696;DHT22;3385;48.928;10.330;2022-11-15T09:14:12;7.80;99.90
6696;DHT22;3385;48.928;10.330;2022-11-15T09:16:38;8.00;99.90
6696;DHT22;3385;48.928;10.330;2022-11-15T09:19:07;8.10;99.90
6696;DHT22;3385;48.928;10.330;2022-11-15T09:21:33;8.10;99.90
6696;DHT22;3385;48.928;10.330;2022-11-15T09:24:03;8.20;99.90
6696;DHT22;3385;48.928;10.330;2022-11-15T09:26:32;8.50;99.90
6696;DHT22;3385;48.928;10.330;2022-11-15T09:29:00;7.60;99.90
6696;DHT22;3385;48.928;10.330;2022-11-15T09:31:27;9.30;99.90
6696;DHT22;3385;48.928;10.330;2022-11-15T09:33:53;9.90;99.90
6696;DHT22;3385;48.928;10.330;2022-11-15T09:36:18;10.40;99.90
6696;DHT22;3385;48.928;10.330;2022-11-15T09:38:46;11.20;99.90
6696;DHT22;3385;48.928;10.330;2022-11-15T09:49:03;13.00;99.90
6696;DHT22;3385;48.928;10.330;2022-11-15T09:51:36;13.40;99.90
6696;DHT22;3385;48.928;10.330;2022-11-15T09:56:39;13.90;99.90
6696;DHT22;3385;48.928;10.330;2022-11-15T10:02:19;14.50;99.90
6696;DHT22;3385;48.928;10.330;2022-11-15T10:04:47;15.00;99.90
6696;DHT22;3385;48.928;10.330;2022-11-15T10:07:28;15.00;99.90
6696;DHT22;3385;48.928;10.330;2022-11-15T10:10:21;15.30;99.90
6696;DHT22;3385;48.928;10.330;2022-11-15T10:12:50;15.50;99.90
6696;DHT22;3385;48.928;10.330;2022-11-15T10:15:18;15.30;99.90
6696;DHT22;3385;48.928;10.330;2022-11-15T10:18:19;15.90;99.90
6696;DHT22;3385;48.928;10.330;2022-11-15T10:21:09;15.80;99.90
6696;DHT22;3385;48.928;10.330;2022-11-15T10:23:39;16.00;99.90
6696;DHT22;3385;48.928;10.330;2022-11-15T10:26:13;16.70;99.90
6696;DHT22;3385;48.928;10.330;2022-11-15T10:28:40;17.20;99.90
6696;DHT22;3385;48.928;10.330;2022-11-15T10:31:25;18.10;99.90
6696;DHT22;3385;48.928;10.330;2022-11-15T10:36:23;17.80;99.90
6696;DHT22;3385;48.928;10.330;2022-11-15T10:38:53;17.60;99.90
6696;DHT22;3385;48.928;10.330;2022-11-15T10:44:19;18.40;99.90
6696;DHT22;3385;48.928;10.330;2022-11-15T10:52:18;18.10;99.90
6696;DHT22;3385;48.928;10.330;2022-11-15T10:55:27;17.90;99.90
6696;DHT22;3385;48.928;10.330;2022-11-15T10:58:03;17.20;99.90
6696;DHT22;3385;48.928;10.330;2022-11-15T11:00:33;16.70;99.90
6696;DHT22;3385;48.928;10.330;2022-11-15T11:03:02;16.60;99.90
6696;DHT22;3385;48.928;10.330;2022-11-15T11:05:38;16.20;99.90
6696;DHT22;3385;48.928;10.330;2022-11-15T11:08:20;15.90;99.90
6696;DHT22;3385;48.928;10.330;2022-11-15T11:10:57;15.70;99.90
6696;DHT22;3385;48.928;10.330;2022-11-15T11:13:26;15.20;99.90
6696;DHT22;3385;48.928;10.330;2022-11-15T11:24:09;14.00;99.90
6696;DHT22;3385;48.928;10.330;2022-11-15T11:37:51;13.30;99.90
6696;DHT22;3385;48.928;10.330;2022-11-15T11:40:40;13.20;99.90
6696;DHT22;3385;48.928;10.330;2022-11-15T11:46:26;13.00;99.90
6696;DHT22;3385;48.928;10.330;2022-11-15T11:49:08;12.90;99.90
6696;DHT22;3385;48.928;10.330;2022-11-15T11:51:41;13.10;99.90
6696;DHT22;3385;48.928;10.330;2022-11-15T11:54:19;13.10;99.90
6696;DHT22;3385;48.928;10.330;2022-11-15T11:56:50;13.30;99.90
6696;DHT22;3385;48.928;10.330;2022-11-15T11:59:27;13.40;99.90
6696;DHT22;3385;48.928;10.330;2022-11-15T12:01:55;13.40;99.90
6696;DHT22;3385;48.928;10.330;2022-11-15T12:04:38;13.40;99.90
6696;DHT22;3385;48.928;10.330;2022-11-15T12:07:20;13.60;99.90
6696;DHT22;3385;48.928;10.330;2022-11-15T12:10:04;13.90;99.90
6696;DHT22;3385;48.928;10.330;2022-11-15T12:12:39;14.00;99.90
6696;DHT22;3385;48.928;10.330;2022-11-15T12:17:37;14.30;99.90
6696;DHT22;3385;48.928;10.330;2022-11-15T12:20:14;14.30;99.90
6696;DHT22;3385;48.928;10.330;2022-11-15T12:30:51;14.60;99.90
6696;DHT22;3385;48.928;10.330;2022-11-15T12:33:41;14.50;99.90
6696;DHT22;3385;48.928;10.330;2022-11-15T12:36:34;14.50;99.90
6696;DHT22;3385;48.928;10.330;2022-11-15T12:39:08;14.70;99.90
6696;DHT22;3385;48.928;10.330;2022-11-15T12:41:38;14.80;99.90
6696;DHT22;3385;48.928;10.330;2022-11-15T12:44:05;15.00;99.90
6696;DHT22;3385;48.928;10.330;2022-11-15T12:49:43;15.40;99.90
6696;DHT22;3385;48.928;10.330;2022-11-15T13:02:22;14.80;99.90
6696;DHT22;3385;48.928;10.330;2022-11-15T13:04:50;14.90;99.90
6696;DHT22;3385;48.928;10.330;2022-11-15T13:17:44;14.50;99.90
6696;DHT22;3385;48.928;10.330;2022-11-15T13:30:41;15.40;99.90
6696;DHT22;3385;48.928;10.330;2022-11-15T13:33:34;14.90;99.90
6696;DHT22;3385;48.928;10.330;2022-11-15T13:36:12;14.30;99.90
6696;DHT22;3385;48.928;10.330;2022-11-15T13:38:40;13.90;99.90
6696;DHT22;3385;48.928;10.330;2022-11-15T13:41:33;13.80;99.90
6696;DHT22;3385;48.928;10.330;2022-11-15T13:44:00;13.50;99.90
6696;DHT22;3385;48.928;10.330;2022-11-15T13:46:31;13.30;99.90
6696;DHT22;3385;48.928;10.330;2022-11-15T13:49:00;13.10;99.90
6696;DHT22;3385;48.928;10.330;2022-11-15T13:51:43;12.90;99.90
6696;DHT22;3385;48.928;10.330;2022-11-15T13:57:04;12.50;99.90
6696;DHT22;3385;48.928;10.330;2022-11-15T13:59:33;12.30;99.90
6696;DHT22;3385;48.928;10.330;2022-11-15T14:02:11;12.20;99.90
6696;DHT22;3385;48.928;10.330;2022-11-15T14:04:39;12.30;99.90
6696;DHT22;3385;48.928;10.330;2022-11-15T14:07:23;12.40;99.90
6696;DHT22;3385;48.928;10.330;2022-11-15T14:09:49;12.40;99.90
6696;DHT22;3385;48.928;10.330;2022-11-15T14:12:22;12.30;99.90
6696;DHT22;3385;48.928;10.330;2022-11-15T14:14:49;12.40;99.90
6696;DHT22;3385;48.928;10.330;2022-11-15T14:17:33;12.40;99.90
6696;DHT22;3385;48.928;10.330;2022-11-15T14:19:59;12.30;99.90
6696;DHT22;3385;48.928;10.330;2022-11-15T14:22:27;12.30;99.90
6696;DHT22;3385;48.928;10.330;2022-11-15T14:32:53;11.20;99.90
6696;DHT22;3385;48.928;10.330;2022-11-15T14:35:21;11.10;99.90
6696;DHT22;3385;48.928;10.330;2022-11-15T14:37:50;11.70;99.90
6696;DHT22;3385;48.928;10.330;2022-11-15T14:40:21;11.70;99.90
6696;DHT22;3385;48.928;10.330;2022-11-15T14:42:49;11.50;99.90
6696;DHT22;3385;48.928;10.330;2022-11-15T14:45:20;11.30;99.90
6696;DHT22;3385;48.928;10.330;2022-11-15T14:47:47;11.00;99.90
6696;DHT22;3385;48.928;10.330;2022-11-15T14:50:16;10.30;99.90
6696;DHT22;3385;48.928;10.330;2022-11-15T14:52:43;11.20;99.90
6696;DHT22;3385;48.928;10.330;2022-11-15T14:55:24;11.20;99.90
6696;DHT22;3385;48.928;10.330;2022-11-15T14:57:50;11.20;99.90
6696;DHT22;3385;48.928;10.330;2022-11-15T15:00:16;11.10;99.90
6696;DHT22;3385;48.928;10.330;2022-11-15T15:02:43;11.10;99.90
6696;DHT22;3385;48.928;10.330;2022-11-15T15:05:29;11.00;99.90
6696;DHT22;3385;48.928;10.330;2022-11-15T15:07:55;11.00;99.90
6696;DHT22;3385;48.928;10.330;2022-11-15T15:10:21;10.80;99.90
6696;DHT22;3385;48.928;10.330;2022-11-15T15:12:47;10.70;99.90
6696;DHT22;3385;48.928;10.330;2022-11-15T15:15:19;10.60;99.90
6696;DHT22;3385;48.928;10.330;2022-11-15T15:17:47;10.50;99.90
6696;DHT22;3385;48.928;10.330;2022-11-15T15:20:13;10.50;99.90
6696;DHT22;3385;48.928;10.330;2022-11-15T15:22:39;10.40;99.90
6696;DHT22;3385;48.928;10.330;2022-11-15T15:25:32;10.40;99.90
6696;DHT22;3385;48.928;10.330;2022-11-15T15:27:58;10.50;99.90
6696;DHT22;3385;48.928;10.330;2022-11-15T15:30:25;10.40;99.90
6696;DHT22;3385;48.928;10.330;2022-11-15T15:32:52;10.40;99.90
6696;DHT22;3385;48.928;10.330;2022-11-15T15:35:18;10.30;99.90
6696;DHT22;3385;48.928;10.330;2022-11-15T15:37:45;10.20;99.90
6696;DHT22;3385;48.928;10.330;2022-11-15T15:40:17;10.20;99.90
6696;DHT22;3385;48.928;10.330;2022-11-15T15:42:44;10.20;99.90
6696;DHT22;3385;48.928;10.330;2022-11-15T15:45:10;10.20;99.90
6696;DHT22;3385;48.928;10.330;2022-11-15T15:47:36;10.10;99.90
6696;DHT22;3385;48.928;10.330;2022-11-15T15:50:04;10.00;99.90
6696;DHT22;3385;48.928;10.330;2022-11-15T15:52:30;10.00;99.90
6696;DHT22;3385;48.928;10.330;2022-11-15T15:54:55;10.00;99.90
6696;DHT22;3385;48.928;10.330;2022-11-15T15:57:21;9.90;99.90
6696;DHT22;3385;48.928;10.330;2022-11-15T15:59:47;9.80;99.90
6696;DHT22;3385;48.928;10.330;2022-11-15T16:02:13;9.70;99.90
6696;DHT22;3385;48.928;10.330;2022-11-15T16:04:39;9.70;99.90
6696;DHT22;3385;48.928;10.330;2022-11-15T16:07:04;9.60;99.90
6696;DHT22;3385;48.928;10.330;2022-11-15T16:09:30;9.60;99.90
6696;DHT22;3385;48.928;10.330;2022-11-15T16:12:19;9.60;99.90
6696;DHT22;3385;48.928;10.330;2022-11-15T16:14:45;9.50;99.90
6696;DHT22;3385;48.928;10.330;2022-11-15T16:17:20;9.40;99.90
6696;DHT22;3385;48.928;10.330;2022-11-15T16:19:47;9.30;99.90
6696;DHT22;3385;48.928;10.330;2022-11-15T16:22:12;9.30;99.90
6696;DHT22;3385;48.928;10.330;2022-11-15T16:24:38;9.30;99.90
6696;DHT22;3385;48.928;10.330;2022-11-15T16:27:04;9.20;99.90
6696;DHT22;3385;48.928;10.330;2022-11-15T16:29:30;9.20;99.90
6696;DHT22;3385;48.928;10.330;2022-11-15T16:31:55;9.10;99.90
6696;DHT22;3385;48.928;10.330;2022-11-15T16:34:21;9.00;99.90
6696;DHT22;3385;48.928;10.330;2022-11-15T16:36:47;8.90;99.90
6696;DHT22;3385;48.928;10.330;2022-11-15T16:39:14;8.90;99.90
6696;DHT22;3385;48.928;10.330;2022-11-15T16:41:42;8.80;99.90
6696;DHT22;3385;48.928;10.330;2022-11-15T16:44:12;8.80;99.90
6696;DHT22;3385;48.928;10.330;2022-11-15T16:46:41;8.70;99.90
6696;DHT22;3385;48.928;10.330;2022-11-15T16:49:13;8.60;99.90
6696;DHT22;3385;48.928;10.330;2022-11-15T16:51:40;8.60;99.90
6696;DHT22;3385;48.928;10.330;2022-11-15T16:54:07;8.60;99.90
6696;DHT22;3385;48.928;10.330;2022-11-15T16:56:33;8.50;99.90
6696;DHT22;3385;48.928;10.330;2022-11-15T16:59:00;8.50;99.90
6696;DHT22;3385;48.928;10.330;2022-11-15T17:01:36;8.40;99.90
6696;DHT22;3385;48.928;10.330;2022-11-15T17:04:16;8.40;99.90
6696;DHT22;3385;48.928;10.330;2022-11-15T17:06:45;8.40;99.90
6696;DHT22;3385;48.928;10.330;2022-11-15T17:09:19;8.40;99.90
6696;DHT22;3385;48.928;10.330;2022-11-15T17:11:45;8.40;99.90
6696;DHT22;3385;48.928;10.330;2022-11-15T17:14:12;8.40;99.90
6696;DHT22;3385;48.928;10.330;2022-11-15T17:16:38;8.40;99.90
6696;DHT22;3385;48.928;10.330;2022-11-15T17:19:11;8.40;99.90
6696;DHT22;3385;48.928;10.330;2022-11-15T17:21:38;8.40;99.90
6696;DHT22;3385;48.928;10.330;2022-11-15T17:24:04;8.40;99.90
6696;DHT22;3385;48.928;10.330;2022-11-15T17:26:30;8.30;99.90
6696;DHT22;3385;48.928;10.330;2022-11-15T17:28:56;8.30;99.90
6696;DHT22;3385;48.928;10.330;2022-11-15T17:31:21;8.20;99.90
6696;DHT22;3385;48.928;10.330;2022-11-15T17:33:47;8.20;99.90
6696;DHT22;3385;48.928;10.330;2022-11-15T17:36:13;8.20;99.90
6696;DHT22;3385;48.928;10.330;2022-11-15T17:38:43;8.20;99.90
6696;DHT22;3385;48.928;10.330;2022-11-15T17:41:16;8.20;99.90
6696;DHT22;3385;48.928;10.330;2022-11-15T17:43:43;8.20;99.90
6696;DHT22;3385;48.928;10.330;2022-11-15T17:46:14;8.10;99.90
6696;DHT22;3385;48.928;10.330;2022-11-15T17:48:40;8.10;99.90
6696;DHT22;3385;48.928;10.330;2022-11-15T17:51:09;8.10;99.90
6696;DHT22;3385;48.928;10.330;2022-11-15T17:53:37;8.00;99.90
6696;DHT22;3385;48.928;10.330;2022-11-15T17:56:03;8.00;99.90
6696;DHT22;3385;48.928;10.330;2022-11-15T17:58:31;7.90;99.90
6696;DHT22;3385;48.928;10.330;2022-11-15T18:01:16;7.90;99.90
6696;DHT22;3385;48.928;10.330;2022-11-15T18:03:42;7.80;99.90
6696;DHT22;3385;48.928;10.330;2022-11-15T18:06:09;7.80;99.90
6696;DHT22;3385;48.928;10.330;2022-11-15T18:08:35;7.80;99.90
6696;DHT22;3385;48.928;10.330;2022-11-15T18:13:36;7.80;99.90
6696;DHT22;3385;48.928;10.330;2022-11-15T18:16:07;7.70;99.90
6696;DHT22;3385;48.928;10.330;2022-11-15T18:18:34;7.70;99.90
6696;DHT22;3385;48.928;10.330;2022-11-15T18:21:04;7.60;99.90
6696;DHT22;3385;48.928;10.330;2022-11-15T18:23:31;7.50;99.90
6696;DHT22;3385;48.928;10.330;2022-11-15T18:25:58;7.40;99.90
6696;DHT22;3385;48.928;10.330;2022-11-15T18:28:32;7.40;99.90
6696;DHT22;3385;48.928;10.330;2022-11-15T18:30:58;7.30;99.90
6696;DHT22;3385;48.928;10.330;2022-11-15T18:33:25;7.30;99.90
6696;DHT22;3385;48.928;10.330;2022-11-15T18:36:01;7.20;99.90
6696;DHT22;3385;48.928;10.330;2022-11-15T18:38:27;7.20;99.90
6696;DHT22;3385;48.928;10.330;2022-11-15T18:41:05;7.10;99.90
6696;DHT22;3385;48.928;10.330;2022-11-15T18:43:32;7.10;99.90
6696;DHT22;3385;48.928;10.330;2022-11-15T18:46:12;7.10;99.90
6696;DHT22;3385;48.928;10.330;2022-11-15T18:48:40;7.10;99.90
6696;DHT22;3385;48.928;10.330;2022-11-15T18:51:08;7.00;99.90
6696;DHT22;3385;48.928;10.330;2022-11-15T18:53:34;6.90;99.90